createdAt,value
2018-02-17T00:00:18.234Z,41.20
2018-02-17T00:02:46.503Z,39.77
2018-02-17T00:05:14.792Z,42.63
2018-02-17T00:07:43.062Z,39.43
2018-02-17T00:10:12.986Z,39.73
2018-02-17T00:12:41.243Z,39.83
2018-02-17T00:15:15.816Z,40.67
2018-02-17T00:17:44.100Z,41.07
2018-02-17T00:20:15.711Z,40.10
2018-02-17T00:22:43.306Z,42.13
2018-02-17T00:25:13.193Z,41.90
2018-02-17T00:27:41.270Z,41.77
2018-02-17T00:30:13.227Z,42.37
2018-02-17T00:32:41.496Z,40.10
2018-02-17T00:35:11.910Z,43.50
2018-02-17T00:37:40.186Z,39.93
2018-02-17T00:40:14.841Z,43.10
2018-02-17T00:42:43.102Z,41.70
2018-02-17T00:45:13.035Z,42.53
2018-02-17T00:47:41.290Z,40.70
2018-02-17T00:50:14.715Z,42.93
2018-02-17T00:52:42.291Z,42.97
2018-02-17T00:55:16.813Z,40.70
2018-02-17T00:57:45.070Z,45.70
2018-02-17T01:00:15.608Z,42.70
2018-02-17T01:02:43.892Z,43.13
2018-02-17T01:05:15.877Z,42.73
2018-02-17T01:07:44.158Z,43.90
2018-02-17T01:10:15.588Z,45.17
2018-02-17T01:12:43.867Z,46.70
2018-02-17T01:15:16.342Z,45.30
2018-02-17T01:17:44.613Z,42.97
2018-02-17T01:20:13.096Z,43.53
2018-02-17T01:22:41.367Z,43.27
2018-02-17T01:25:09.632Z,45.73
2018-02-17T01:27:37.886Z,43.97
2018-02-17T01:30:11.414Z,43.00
2018-02-17T01:32:39.695Z,46.30
2018-02-17T01:35:16.547Z,46.80
2018-02-17T01:37:44.832Z,48.37
2018-02-17T01:40:15.943Z,45.67
2018-02-17T01:42:44.204Z,44.03
2018-02-17T01:45:14.837Z,45.73
2018-02-17T01:47:43.086Z,47.50
2018-02-17T01:50:22.330Z,47.90
2018-02-17T01:52:50.403Z,47.57
2018-02-17T01:55:20.069Z,46.13
2018-02-17T01:57:48.142Z,47.80
2018-02-17T02:00:16.414Z,43.67
2018-02-17T02:02:44.671Z,48.07
2018-02-17T02:05:15.883Z,46.20
2018-02-17T02:07:44.155Z,44.60
2018-02-17T02:10:16.172Z,47.47
2018-02-17T02:12:44.438Z,46.10
2018-02-17T02:15:12.694Z,47.10
2018-02-17T02:17:40.946Z,47.07
2018-02-17T02:20:15.821Z,49.90
2018-02-17T02:22:44.071Z,48.13
2018-02-17T02:25:16.226Z,46.77
2018-02-17T02:27:44.489Z,46.40
2018-02-17T02:30:16.395Z,48.83
2018-02-17T02:32:44.660Z,47.97
2018-02-17T02:35:13.336Z,44.80
2018-02-17T02:37:41.590Z,44.40
2018-02-17T02:40:12.326Z,45.70
2018-02-17T02:42:41.609Z,45.83
2018-02-17T02:45:13.085Z,46.07
2018-02-17T02:47:41.384Z,48.97
2018-02-17T02:50:15.462Z,47.20
2018-02-17T02:52:43.739Z,46.60
2018-02-17T02:55:13.291Z,49.27
2018-02-17T02:57:41.587Z,47.50
2018-02-17T03:00:16.163Z,49.77
2018-02-17T03:02:44.421Z,48.37
2018-02-17T03:05:12.685Z,47.00
2018-02-17T03:07:40.956Z,49.17
2018-02-17T03:10:13.422Z,50.00
2018-02-17T03:12:41.712Z,48.43
2018-02-17T03:15:12.441Z,47.20
2018-02-17T03:17:40.702Z,47.73
2018-02-17T03:20:13.779Z,46.70
2018-02-17T03:22:42.828Z,46.10
2018-02-17T03:25:12.814Z,46.30
2018-02-17T03:27:40.881Z,48.47
2018-02-17T03:30:09.138Z,45.83
2018-02-17T03:32:37.382Z,47.37
2018-02-17T03:35:14.789Z,44.73
2018-02-17T03:37:43.046Z,47.97
2018-02-17T03:40:15.779Z,50.00
2018-02-17T03:42:44.030Z,50.00
2018-02-17T03:45:15.432Z,47.47
2018-02-17T03:47:43.685Z,49.03
2018-02-17T03:50:13.297Z,48.90
2018-02-17T03:52:41.554Z,48.30
2018-02-17T03:55:13.402Z,47.07
2018-02-17T03:57:41.657Z,46.00
2018-02-17T04:00:16.052Z,48.37
2018-02-17T04:02:44.309Z,48.00
2018-02-17T04:05:12.382Z,48.60
2018-02-17T04:07:40.452Z,46.57
2018-02-17T04:10:16.821Z,47.13
2018-02-17T04:12:45.101Z,47.37
2018-02-17T04:15:17.189Z,44.90
2018-02-17T04:17:45.441Z,46.10
2018-02-17T04:20:15.636Z,44.90
2018-02-17T04:22:43.888Z,47.83
2018-02-17T04:25:16.672Z,47.77
2018-02-17T04:27:44.945Z,44.20
2018-02-17T04:30:13.191Z,45.00
2018-02-17T04:32:41.461Z,43.23
2018-02-17T04:35:15.887Z,44.43
2018-02-17T04:37:43.962Z,44.20
2018-02-17T04:40:31.708Z,46.03
2018-02-17T04:42:59.773Z,46.90
2018-02-17T04:45:30.754Z,46.20
2018-02-17T04:47:59.742Z,46.50
2018-02-17T04:50:27.808Z,44.63
2018-02-17T04:53:10.759Z,43.70
2018-02-17T04:59:04.092Z,45.25
2018-02-17T05:01:46.021Z,52.20
2018-02-17T05:04:19.782Z,47.70
2018-02-17T05:06:47.861Z,46.33
2018-02-17T05:09:15.617Z,45.77
2018-02-17T05:11:44.265Z,49.40
2018-02-17T05:14:30.032Z,51.70
2018-02-17T05:17:08.017Z,45.80
2018-02-17T05:19:41.753Z,46.60
2018-02-17T05:22:09.816Z,44.00
2018-02-17T05:27:49.090Z,42.93
2018-02-17T05:30:32.858Z,42.57
2018-02-17T05:33:00.921Z,44.50
2018-02-17T05:35:28.989Z,42.10
2018-02-17T05:37:57.053Z,43.20
2018-02-17T05:40:30.770Z,45.27
2018-02-17T05:42:58.837Z,43.03
2018-02-17T05:45:26.906Z,44.40
2018-02-17T05:47:58.920Z,43.70
2018-02-17T05:50:36.899Z,43.30
2018-02-17T05:53:05.149Z,44.10
2018-02-17T05:55:33.401Z,43.60
2018-02-17T05:58:01.649Z,43.87
2018-02-17T06:00:29.897Z,44.03
2018-02-17T06:02:58.163Z,41.03
2018-02-17T06:05:26.229Z,44.13
2018-02-17T06:07:54.301Z,44.60
2018-02-17T06:10:22.589Z,45.67
2018-02-17T06:12:50.857Z,41.27
2018-02-17T06:15:19.098Z,43.13
2018-02-17T06:17:47.353Z,47.53
2018-02-17T06:20:15.634Z,41.73
2018-02-17T06:22:43.893Z,39.53
2018-02-17T06:25:15.506Z,43.57
2018-02-17T06:27:43.759Z,40.80
2018-02-17T06:30:16.565Z,44.17
2018-02-17T06:32:44.817Z,42.37
2018-02-17T06:35:15.974Z,44.90
2018-02-17T06:37:44.266Z,47.23
2018-02-17T06:40:13.029Z,43.00
2018-02-17T06:42:41.286Z,44.30
2018-02-17T06:45:09.543Z,45.07
2018-02-17T06:47:37.803Z,46.13
2018-02-17T06:50:09.221Z,41.57
2018-02-17T06:52:37.161Z,43.70
2018-02-17T06:55:12.000Z,46.30
2018-02-17T06:57:40.246Z,43.37
2018-02-17T07:00:16.305Z,48.00
2018-02-17T07:02:44.740Z,47.37
2018-02-17T07:05:15.698Z,48.27
2018-02-17T07:07:43.954Z,45.50
2018-02-17T07:10:15.393Z,43.03
2018-02-17T07:12:43.644Z,43.43
2018-02-17T07:15:15.950Z,46.00
2018-02-17T07:17:44.220Z,45.77
2018-02-17T07:20:16.250Z,42.97
2018-02-17T07:22:44.508Z,44.87
2018-02-17T07:25:16.121Z,43.67
2018-02-17T07:27:44.377Z,42.87
2018-02-17T07:30:16.713Z,43.93
2018-02-17T07:32:44.977Z,43.57
2018-02-17T07:35:13.241Z,41.47
2018-02-17T07:37:41.530Z,43.70
2018-02-17T07:40:11.288Z,45.10
2018-02-17T07:42:39.543Z,45.10
2018-02-17T07:45:07.807Z,44.33
2018-02-17T07:47:36.057Z,42.57
2018-02-17T07:50:05.959Z,39.23
2018-02-17T07:52:36.959Z,42.50
2018-02-17T07:55:09.051Z,41.37
2018-02-17T07:57:37.294Z,38.60
2018-02-17T08:00:07.698Z,40.17
2018-02-17T08:02:36.023Z,39.67
2018-02-17T08:05:04.533Z,39.93
2018-02-17T08:07:33.065Z,41.73
2018-02-17T08:10:01.323Z,39.80
2018-02-17T08:12:29.570Z,41.10
2018-02-17T08:14:57.830Z,37.90
2018-02-17T08:17:26.082Z,38.90
2018-02-17T08:19:54.357Z,39.77
2018-02-17T08:22:22.606Z,39.93
2018-02-17T08:24:50.872Z,37.53
2018-02-17T08:27:19.138Z,38.30
2018-02-17T08:29:47.394Z,36.63
2018-02-17T08:32:15.653Z,36.90
2018-02-17T08:34:43.901Z,40.77
2018-02-17T08:37:12.359Z,40.40
2018-02-17T08:39:40.617Z,40.90
2018-02-17T08:42:08.874Z,39.50
2018-02-17T08:44:37.155Z,40.60
2018-02-17T08:47:05.401Z,38.73
2018-02-17T08:49:33.658Z,41.77
2018-02-17T08:52:01.916Z,39.37
2018-02-17T08:54:30.190Z,37.03
2018-02-17T08:56:58.441Z,43.00
2018-02-17T08:59:26.706Z,41.57
2018-02-17T09:01:54.978Z,37.07
2018-02-17T09:04:23.236Z,39.53
2018-02-17T09:06:51.505Z,36.70
2018-02-17T09:09:19.774Z,37.37
2018-02-17T09:11:47.838Z,39.87
2018-02-17T09:14:16.092Z,36.83
2018-02-17T09:16:44.348Z,39.17
2018-02-17T09:19:12.601Z,39.60
2018-02-17T09:21:40.923Z,35.17
2018-02-17T09:24:09.186Z,40.23
2018-02-17T09:26:37.444Z,40.73
2018-02-17T09:29:05.702Z,39.47
2018-02-17T09:31:33.975Z,37.30
2018-02-17T09:34:02.242Z,38.50
2018-02-17T09:36:30.501Z,40.77
2018-02-17T09:38:58.782Z,38.63
2018-02-17T09:41:27.069Z,41.53
2018-02-17T09:43:55.326Z,41.80
2018-02-17T09:46:23.582Z,36.00
2018-02-17T09:48:51.831Z,42.33
2018-02-17T09:51:20.089Z,42.23
2018-02-17T09:53:48.157Z,40.40
2018-02-17T09:56:16.418Z,41.57
2018-02-17T09:58:44.673Z,40.67
2018-02-17T10:01:12.917Z,38.27
2018-02-17T10:03:41.186Z,41.20
2018-02-17T10:06:09.437Z,41.67
2018-02-17T10:08:37.697Z,40.27
2018-02-17T10:11:05.959Z,40.50
2018-02-17T10:13:34.203Z,38.57
2018-02-17T10:16:03.235Z,40.10
2018-02-17T10:18:31.317Z,39.20
2018-02-17T10:20:59.421Z,39.80
2018-02-17T10:23:27.691Z,41.73
2018-02-17T10:25:55.761Z,40.10
2018-02-17T10:28:24.022Z,41.77
2018-02-17T10:30:52.273Z,39.17
2018-02-17T10:33:20.550Z,41.13
2018-02-17T10:35:48.826Z,40.60
2018-02-17T10:38:17.080Z,41.37
2018-02-17T10:40:45.340Z,42.93
2018-02-17T10:43:13.606Z,41.57
2018-02-17T10:45:41.857Z,43.03
2018-02-17T10:48:10.114Z,40.63
2018-02-17T10:50:38.429Z,40.73
2018-02-17T10:53:06.814Z,46.20
2018-02-17T10:55:37.938Z,43.47
2018-02-17T10:58:06.227Z,43.20
2018-02-17T11:00:34.477Z,43.17
2018-02-17T11:03:02.923Z,48.40
2018-02-17T11:05:31.349Z,44.20
2018-02-17T11:07:59.619Z,43.30
2018-02-17T11:10:28.718Z,43.17
2018-02-17T11:12:56.973Z,48.00
2018-02-17T11:15:25.233Z,48.93
2018-02-17T11:17:53.486Z,46.23
2018-02-17T11:20:21.742Z,44.37
2018-02-17T11:22:50.006Z,48.07
2018-02-17T11:25:18.573Z,44.97
2018-02-17T11:27:46.830Z,46.27
2018-02-17T11:30:16.739Z,46.10
2018-02-17T11:32:45.045Z,45.87
2018-02-17T11:35:13.542Z,43.90
2018-02-17T11:37:41.797Z,46.97
2018-02-17T11:40:13.017Z,45.60
2018-02-17T11:42:41.270Z,45.60
2018-02-17T11:45:15.861Z,46.60
2018-02-17T11:47:44.118Z,46.90
2018-02-17T11:50:16.209Z,45.83
2018-02-17T11:52:44.292Z,46.33
2018-02-17T11:55:13.563Z,50.35
2018-02-17T11:57:41.640Z,47.60
2018-02-17T12:00:16.271Z,47.40
2018-02-17T12:02:44.556Z,48.47
2018-02-17T12:05:13.234Z,46.27
2018-02-17T12:07:41.505Z,52.40
2018-02-17T12:10:16.138Z,45.03
2018-02-17T12:12:44.419Z,48.03
2018-02-17T12:15:14.992Z,44.43
2018-02-17T12:17:43.241Z,45.00
2018-02-17T12:20:14.558Z,45.33
2018-02-17T12:22:42.814Z,48.10
2018-02-17T12:25:15.976Z,47.20
2018-02-17T12:27:44.237Z,49.07
2018-02-17T12:30:12.482Z,48.27
2018-02-17T12:32:40.735Z,45.70
2018-02-17T12:35:11.508Z,44.97
2018-02-17T12:37:39.769Z,45.97
2018-02-17T12:40:15.010Z,50.50
2018-02-17T12:42:43.296Z,48.40
2018-02-17T12:45:15.645Z,46.17
2018-02-17T12:47:43.901Z,46.20
2018-02-17T12:50:16.481Z,46.80
2018-02-17T12:52:44.752Z,46.50
2018-02-17T12:55:13.002Z,43.70
2018-02-17T12:57:41.883Z,48.67
2018-02-17T13:00:12.469Z,46.03
2018-02-17T13:02:40.730Z,48.97
2018-02-17T13:05:12.614Z,43.40
2018-02-17T13:07:40.730Z,48.90
2018-02-17T13:10:13.775Z,46.27
2018-02-17T13:12:41.839Z,45.73
2018-02-17T13:15:16.403Z,46.70
2018-02-17T13:17:44.658Z,46.40
2018-02-17T13:20:13.328Z,46.67
2018-02-17T13:22:41.589Z,45.47
2018-02-17T13:25:13.830Z,49.70
2018-02-17T13:27:42.090Z,47.60
2018-02-17T13:30:13.447Z,45.33
2018-02-17T13:32:41.418Z,47.30
2018-02-17T13:35:09.693Z,44.93
2018-02-17T13:37:37.949Z,43.83
2018-02-17T13:40:07.006Z,45.27
2018-02-17T13:42:35.255Z,47.17
2018-02-17T13:45:03.508Z,45.13
2018-02-17T13:47:31.770Z,44.87
2018-02-17T13:50:00.058Z,48.53
2018-02-17T13:52:28.305Z,44.37
2018-02-17T13:54:56.562Z,46.13
2018-02-17T13:57:24.820Z,42.50
2018-02-17T13:59:53.103Z,47.07
2018-02-17T14:02:21.668Z,43.40
2018-02-17T14:04:49.921Z,44.33
2018-02-17T14:07:18.282Z,44.77
2018-02-17T14:09:46.536Z,41.27
2018-02-17T14:12:14.811Z,44.80
2018-02-17T14:14:43.066Z,46.50
2018-02-17T14:17:11.141Z,44.00
2018-02-17T14:19:39.395Z,44.50
2018-02-17T14:22:07.657Z,42.20
2018-02-17T14:24:35.913Z,43.57
2018-02-17T14:27:04.156Z,45.20
2018-02-17T14:29:32.414Z,43.43
2018-02-17T14:32:00.706Z,41.20
2018-02-17T14:34:28.992Z,43.40
2018-02-17T14:36:57.246Z,46.70
2018-02-17T14:39:25.510Z,43.10
2018-02-17T14:41:53.584Z,42.53
2018-02-17T14:44:21.845Z,44.33
2018-02-17T14:46:50.098Z,45.17
2018-02-17T14:49:18.214Z,43.50
2018-02-17T14:51:46.478Z,43.77
2018-02-17T14:54:14.739Z,42.27
2018-02-17T14:56:43.001Z,43.97
2018-02-17T14:59:11.269Z,44.97
2018-02-17T15:01:39.574Z,46.60
2018-02-17T15:04:07.839Z,43.50
2018-02-17T15:06:36.117Z,45.90
2018-02-17T15:09:03.881Z,43.93
2018-02-17T15:11:31.961Z,44.80
2018-02-17T15:14:00.222Z,44.00
2018-02-17T15:16:28.522Z,46.70
2018-02-17T15:18:56.778Z,43.43
2018-02-17T15:21:25.049Z,43.80
2018-02-17T15:23:53.301Z,46.60
2018-02-17T15:26:21.555Z,46.83
2018-02-17T15:28:49.822Z,46.37
2018-02-17T15:31:18.133Z,44.10
2018-02-17T15:33:46.597Z,44.37
2018-02-17T15:36:14.848Z,46.17
2018-02-17T15:38:42.926Z,45.63
2018-02-17T15:41:11.177Z,47.30
2018-02-17T15:43:39.441Z,43.50
2018-02-17T15:46:07.698Z,45.40
2018-02-17T15:48:35.950Z,47.30
2018-02-17T15:51:04.202Z,47.30
2018-02-17T15:53:32.469Z,44.60
2018-02-17T15:56:00.745Z,47.10
2018-02-17T15:58:29.066Z,44.20
2018-02-17T16:00:57.337Z,42.50
2018-02-17T16:03:25.583Z,45.07
2018-02-17T16:05:53.833Z,44.77
2018-02-17T16:08:22.113Z,45.50
2018-02-17T16:10:50.369Z,42.60
2018-02-17T16:13:18.630Z,40.93
2018-02-17T16:15:46.894Z,45.17
2018-02-17T16:18:15.147Z,42.23
2018-02-17T16:20:43.287Z,41.43
2018-02-17T16:23:11.553Z,42.10
2018-02-17T16:25:39.625Z,42.00
2018-02-17T16:28:07.882Z,42.70
2018-02-17T16:30:36.126Z,42.10
2018-02-17T16:33:04.375Z,42.40
2018-02-17T16:35:32.640Z,42.03
2018-02-17T16:38:00.955Z,45.47
2018-02-17T16:40:29.297Z,43.27
2018-02-17T16:42:57.554Z,44.37
2018-02-17T16:45:25.825Z,43.80
2018-02-17T16:47:54.089Z,42.87
2018-02-17T16:50:22.367Z,45.93
2018-02-17T16:52:50.629Z,43.07
2018-02-17T16:55:18.884Z,42.90
2018-02-17T16:57:47.130Z,41.00
2018-02-17T17:00:15.435Z,47.07
2018-02-17T17:02:43.869Z,46.90
2018-02-17T17:05:12.217Z,47.37
2018-02-17T17:07:40.281Z,45.60
2018-02-17T17:10:10.142Z,43.83
2018-02-17T17:12:38.206Z,44.57
2018-02-17T17:15:06.470Z,46.73
2018-02-17T17:17:35.551Z,43.60
2018-02-17T17:20:04.216Z,41.17
2018-02-17T17:22:37.982Z,44.67
2018-02-17T17:25:09.703Z,46.67
2018-02-17T17:27:37.953Z,45.70
2018-02-17T17:30:06.553Z,46.60
2018-02-17T17:32:34.631Z,46.13
2018-02-17T17:35:02.912Z,51.07
2018-02-17T17:37:31.185Z,48.93
2018-02-17T17:39:59.442Z,47.13
2018-02-17T17:42:27.714Z,48.70
2018-02-17T17:44:55.975Z,46.83
2018-02-17T17:47:24.222Z,48.40
2018-02-17T17:49:52.498Z,49.27
2018-02-17T17:52:20.753Z,47.90
2018-02-17T17:54:49.046Z,44.70
2018-02-17T17:57:17.465Z,45.30
2018-02-17T17:59:45.717Z,48.70
2018-02-17T18:02:14.001Z,49.43
2018-02-17T18:04:42.257Z,50.80
2018-02-17T18:07:10.738Z,47.13
2018-02-17T18:09:38.997Z,43.73
2018-02-17T18:12:07.250Z,41.20
2018-02-17T18:14:35.519Z,45.50
2018-02-17T18:17:03.809Z,47.90
2018-02-17T18:19:32.263Z,51.53
2018-02-17T18:22:00.523Z,46.17
2018-02-17T18:24:28.796Z,42.23
2018-02-17T18:26:57.072Z,43.77
2018-02-17T18:29:25.333Z,42.33
2018-02-17T18:31:53.596Z,39.47
2018-02-17T18:34:21.874Z,43.83
2018-02-17T18:36:50.143Z,37.30
2018-02-17T18:39:18.402Z,42.90
2018-02-17T18:41:46.658Z,40.90
2018-02-17T18:44:14.905Z,42.27
2018-02-17T18:46:43.150Z,42.17
2018-02-17T18:49:11.393Z,42.07
2018-02-17T18:51:39.644Z,40.90
2018-02-17T18:54:07.906Z,42.40
2018-02-17T18:56:36.285Z,42.20
2018-02-17T18:59:04.542Z,40.10
2018-02-17T19:01:32.615Z,41.00
2018-02-17T19:04:00.870Z,51.10
2018-02-17T19:06:29.410Z,53.50
2018-02-17T19:08:57.813Z,44.20
2018-02-17T19:11:25.911Z,43.23
2018-02-17T19:13:54.163Z,38.80
2018-02-17T19:16:22.413Z,42.33
2018-02-17T19:18:50.666Z,40.67
2018-02-17T19:21:18.909Z,39.60
2018-02-17T19:23:47.221Z,41.30
2018-02-17T19:26:15.620Z,42.23
2018-02-17T19:28:43.888Z,40.47
2018-02-17T19:31:12.338Z,42.00
2018-02-17T19:33:40.582Z,41.70
2018-02-17T19:36:08.837Z,47.30
2018-02-17T19:38:37.107Z,46.17
2018-02-17T19:41:05.359Z,43.57
2018-02-17T19:43:33.615Z,42.80
2018-02-17T19:46:01.873Z,42.17
2018-02-17T19:48:30.479Z,45.47
2018-02-17T19:50:58.898Z,41.70
2018-02-17T19:53:27.191Z,41.20
2018-02-17T19:55:55.250Z,42.37
2018-02-17T19:58:23.504Z,38.87
2018-02-17T20:00:51.770Z,39.97
2018-02-17T20:03:20.119Z,42.00
2018-02-17T20:05:48.385Z,40.60
2018-02-17T20:08:16.629Z,40.50
2018-02-17T20:10:44.886Z,39.70
2018-02-17T20:13:13.134Z,37.90
2018-02-17T20:15:41.389Z,38.90
2018-02-17T20:18:09.634Z,44.70
2018-02-17T20:20:37.909Z,45.27
2018-02-17T20:23:06.161Z,45.27
2018-02-17T20:25:34.416Z,39.67
2018-02-17T20:28:02.478Z,39.57
2018-02-17T20:30:30.691Z,38.23
2018-02-17T20:32:58.945Z,40.73
2018-02-17T20:35:27.195Z,38.50
2018-02-17T20:37:55.478Z,39.27
2018-02-17T20:40:23.895Z,43.67
2018-02-17T20:42:52.185Z,41.07
2018-02-17T20:45:20.571Z,36.80
2018-02-17T20:47:48.844Z,38.30
2018-02-17T20:50:17.097Z,40.00
2018-02-17T20:52:45.550Z,40.73
2018-02-17T20:55:13.814Z,53.03
2018-02-17T20:57:42.319Z,39.60
2018-02-17T21:00:10.561Z,39.50
2018-02-17T21:02:38.837Z,37.20
2018-02-17T21:05:15.898Z,37.13
2018-02-17T21:07:44.236Z,38.33
2018-02-17T21:10:14.942Z,36.47
2018-02-17T21:12:43.197Z,36.07
2018-02-17T21:15:16.752Z,42.40
2018-02-17T21:17:44.998Z,40.83
2018-02-17T21:20:14.008Z,34.37
2018-02-17T21:22:42.258Z,36.00
2018-02-17T21:25:15.850Z,37.93
2018-02-17T21:27:44.104Z,36.33
2018-02-17T21:30:15.880Z,34.87
2018-02-17T21:32:44.258Z,34.13
2018-02-17T21:37:54.194Z,33.40
2018-02-17T21:40:22.455Z,34.37
2018-02-17T21:42:50.703Z,33.60
2018-02-17T21:45:18.958Z,30.50
2018-02-17T21:47:47.213Z,34.00
2018-02-17T21:50:15.468Z,31.97
2018-02-17T21:52:43.725Z,32.33
2018-02-17T21:55:16.358Z,32.03
2018-02-17T21:57:44.610Z,30.93
2018-02-17T22:00:15.566Z,30.70
2018-02-17T22:02:43.848Z,31.33
2018-02-17T22:05:15.998Z,29.33
2018-02-17T22:07:44.256Z,29.07
2018-02-17T22:10:13.227Z,28.07
2018-02-17T22:12:41.489Z,27.47
2018-02-17T22:15:14.277Z,28.53
2018-02-17T22:17:42.662Z,29.43
2018-02-17T22:20:16.710Z,26.23
2018-02-17T22:22:44.962Z,25.87
2018-02-17T22:25:14.252Z,36.43
2018-02-17T22:27:42.496Z,30.70
2018-02-17T22:30:10.751Z,28.03
2018-02-17T22:32:38.998Z,26.47
2018-02-17T22:35:10.062Z,28.63
2018-02-17T22:37:38.313Z,25.83
2018-02-17T22:40:13.042Z,25.70
2018-02-17T22:42:41.313Z,23.13
2018-02-17T22:45:15.981Z,28.70
2018-02-17T22:47:44.230Z,23.60
2018-02-17T22:50:15.994Z,21.87
2018-02-17T22:52:44.252Z,22.23
2018-02-17T22:55:13.855Z,21.50
2018-02-17T22:57:42.108Z,21.87
2018-02-17T23:00:30.660Z,20.57
2018-02-17T23:02:58.910Z,22.47
2018-02-17T23:05:27.334Z,22.33
2018-02-17T23:07:55.587Z,23.10
2018-02-17T23:10:23.841Z,25.97
2018-02-17T23:12:51.905Z,28.83
2018-02-17T23:15:19.971Z,26.20
2018-02-17T23:17:48.221Z,29.17
2018-02-17T23:20:16.492Z,25.70
2018-02-17T23:22:44.773Z,24.83
2018-02-17T23:25:16.074Z,23.00
2018-02-17T23:27:44.311Z,23.80
2018-02-17T23:30:12.582Z,22.33
2018-02-17T23:32:40.847Z,23.23
2018-02-17T23:35:13.113Z,23.43
2018-02-17T23:37:41.361Z,22.50
2018-02-17T23:40:14.480Z,20.87
2018-02-17T23:42:42.736Z,19.40
2018-02-17T23:45:15.729Z,22.37
2018-02-17T23:47:43.974Z,18.27
2018-02-17T23:50:15.683Z,19.67
2018-02-17T23:52:43.937Z,19.00
2018-02-17T23:55:14.203Z,18.10
2018-02-17T23:57:42.460Z,16.90
